sensor_id;sensor_type;location;lat;lon;timestamp;P1;durP1;ratioP1;P2;durP2;ratioP2
46158;SDS011;31888;44.512;26.104;2022-09-01T00:00:07;21.65;;;13.63;;
46158;SDS011;31888;44.512;26.104;2022-09-01T00:02:15;26.67;;;14.48;;
46158;SDS011;31888;44.512;26.104;2022-09-01T00:04:20;19.45;;;14.00;;
46158;SDS011;31888;44.512;26.104;2022-09-01T00:06:29;22.63;;;13.47;;
46158;SDS011;31888;44.512;26.104;2022-09-01T00:08:36;23.23;;;14.07;;
46158;SDS011;31888;44.512;26.104;2022-09-01T00:10:42;22.92;;;14.18;;
46158;SDS011;31888;44.512;26.104;2022-09-01T00:12:48;22.63;;;13.02;;
46158;SDS011;31888;44.512;26.104;2022-09-01T00:14:53;22.75;;;13.05;;
46158;SDS011;31888;44.512;26.104;2022-09-01T00:16:58;19.73;;;12.93;;
46158;SDS011;31888;44.512;26.104;2022-09-01T00:19:03;21.98;;;13.68;;
46158;SDS011;31888;44.512;26.104;2022-09-01T00:21:08;25.58;;;13.15;;
46158;SDS011;31888;44.512;26.104;2022-09-01T00:23:13;22.50;;;13.75;;
46158;SDS011;31888;44.512;26.104;2022-09-01T00:25:18;19.40;;;12.48;;
46158;SDS011;31888;44.512;26.104;2022-09-01T00:27:24;20.27;;;13.27;;
46158;SDS011;31888;44.512;26.104;2022-09-01T00:29:32;24.35;;;13.60;;
46158;SDS011;31888;44.512;26.104;2022-09-01T00:31:36;28.33;;;13.65;;
46158;SDS011;31888;44.512;26.104;2022-09-01T00:33:41;23.20;;;13.80;;
46158;SDS011;31888;44.512;26.104;2022-09-01T00:35:46;19.08;;;13.93;;
46158;SDS011;31888;44.512;26.104;2022-09-01T00:37:51;20.80;;;11.82;;
46158;SDS011;31888;44.512;26.104;2022-09-01T00:39:55;22.50;;;13.35;;
46158;SDS011;31888;44.512;26.104;2022-09-01T00:42:00;28.20;;;14.57;;
46158;SDS011;31888;44.512;26.104;2022-09-01T00:44:06;17.27;;;13.05;;
46158;SDS011;31888;44.512;26.104;2022-09-01T00:46:14;18.17;;;13.00;;
46158;SDS011;31888;44.512;26.104;2022-09-01T00:48:23;23.63;;;13.00;;
46158;SDS011;31888;44.512;26.104;2022-09-01T00:50:27;22.05;;;12.75;;
46158;SDS011;31888;44.512;26.104;2022-09-01T00:52:34;16.38;;;12.27;;
46158;SDS011;31888;44.512;26.104;2022-09-01T00:54:42;24.02;;;13.60;;
46158;SDS011;31888;44.512;26.104;2022-09-01T00:56:50;18.02;;;12.27;;
46158;SDS011;31888;44.512;26.104;2022-09-01T00:58:59;18.63;;;12.73;;
46158;SDS011;31888;44.512;26.104;2022-09-01T01:01:07;20.58;;;12.35;;
46158;SDS011;31888;44.512;26.104;2022-09-01T01:03:13;23.27;;;13.73;;
46158;SDS011;31888;44.512;26.104;2022-09-01T01:05:17;20.10;;;12.38;;
46158;SDS011;31888;44.512;26.104;2022-09-01T01:07:23;23.58;;;12.98;;
46158;SDS011;31888;44.512;26.104;2022-09-01T01:09:30;21.10;;;13.40;;
46158;SDS011;31888;44.512;26.104;2022-09-01T01:11:38;24.20;;;13.15;;
46158;SDS011;31888;44.512;26.104;2022-09-01T01:13:48;18.98;;;13.00;;
46158;SDS011;31888;44.512;26.104;2022-09-01T01:15:55;19.73;;;12.55;;
46158;SDS011;31888;44.512;26.104;2022-09-01T01:18:02;17.40;;;12.38;;
46158;SDS011;31888;44.512;26.104;2022-09-01T01:20:07;19.98;;;14.18;;
46158;SDS011;31888;44.512;26.104;2022-09-01T01:22:33;18.15;;;12.88;;
46158;SDS011;31888;44.512;26.104;2022-09-01T01:25:03;17.67;;;11.93;;
46158;SDS011;31888;44.512;26.104;2022-09-01T01:27:11;19.30;;;11.77;;
46158;SDS011;31888;44.512;26.104;2022-09-01T01:29:20;16.60;;;12.02;;
46158;SDS011;31888;44.512;26.104;2022-09-01T01:31:26;18.35;;;12.05;;
46158;SDS011;31888;44.512;26.104;2022-09-01T01:33:31;18.58;;;12.15;;
46158;SDS011;31888;44.512;26.104;2022-09-01T01:35:44;17.10;;;11.65;;
46158;SDS011;31888;44.512;26.104;2022-09-01T01:37:49;18.95;;;11.57;;
46158;SDS011;31888;44.512;26.104;2022-09-01T01:39:53;18.95;;;12.00;;
46158;SDS011;31888;44.512;26.104;2022-09-01T01:41:58;14.63;;;10.52;;
46158;SDS011;31888;44.512;26.104;2022-09-01T01:44:03;17.88;;;11.68;;
46158;SDS011;31888;44.512;26.104;2022-09-01T01:46:08;17.52;;;11.93;;
46158;SDS011;31888;44.512;26.104;2022-09-01T01:48:15;20.77;;;11.90;;
46158;SDS011;31888;44.512;26.104;2022-09-01T01:50:26;16.77;;;11.85;;
46158;SDS011;31888;44.512;26.104;2022-09-01T01:52:37;18.42;;;11.90;;
46158;SDS011;31888;44.512;26.104;2022-09-01T01:54:46;13.63;;;10.50;;
46158;SDS011;31888;44.512;26.104;2022-09-01T01:56:51;18.20;;;11.23;;
46158;SDS011;31888;44.512;26.104;2022-09-01T01:58:59;19.90;;;10.57;;
46158;SDS011;31888;44.512;26.104;2022-09-01T02:01:03;17.80;;;12.02;;
46158;SDS011;31888;44.512;26.104;2022-09-01T02:03:12;19.88;;;11.95;;
46158;SDS011;31888;44.512;26.104;2022-09-01T02:05:21;18.73;;;11.38;;
46158;SDS011;31888;44.512;26.104;2022-09-01T02:07:27;15.18;;;10.65;;
46158;SDS011;31888;44.512;26.104;2022-09-01T02:09:35;18.48;;;10.85;;
46158;SDS011;31888;44.512;26.104;2022-09-01T02:11:42;16.48;;;11.45;;
46158;SDS011;31888;44.512;26.104;2022-09-01T02:13:47;18.02;;;11.48;;
46158;SDS011;31888;44.512;26.104;2022-09-01T02:15:56;15.50;;;11.40;;
46158;SDS011;31888;44.512;26.104;2022-09-01T02:18:03;15.85;;;11.35;;
46158;SDS011;31888;44.512;26.104;2022-09-01T02:20:08;17.55;;;11.60;;
46158;SDS011;31888;44.512;26.104;2022-09-01T02:22:13;19.60;;;11.40;;
46158;SDS011;31888;44.512;26.104;2022-09-01T02:24:21;16.88;;;11.18;;
46158;SDS011;31888;44.512;26.104;2022-09-01T02:26:28;17.02;;;10.18;;
46158;SDS011;31888;44.512;26.104;2022-09-01T02:28:34;16.23;;;10.68;;
46158;SDS011;31888;44.512;26.104;2022-09-01T02:30:41;15.82;;;9.80;;
46158;SDS011;31888;44.512;26.104;2022-09-01T02:32:49;18.98;;;10.15;;
46158;SDS011;31888;44.512;26.104;2022-09-01T02:34:53;15.93;;;10.65;;
46158;SDS011;31888;44.512;26.104;2022-09-01T02:37:04;15.70;;;10.18;;
46158;SDS011;31888;44.512;26.104;2022-09-01T02:39:09;14.48;;;9.95;;
46158;SDS011;31888;44.512;26.104;2022-09-01T02:41:14;14.18;;;10.50;;
46158;SDS011;31888;44.512;26.104;2022-09-01T02:43:23;14.88;;;9.95;;
46158;SDS011;31888;44.512;26.104;2022-09-01T02:45:29;14.77;;;10.10;;
46158;SDS011;31888;44.512;26.104;2022-09-01T02:47:35;14.40;;;9.38;;
46158;SDS011;31888;44.512;26.104;2022-09-01T02:49:45;13.90;;;9.98;;
46158;SDS011;31888;44.512;26.104;2022-09-01T02:51:49;17.55;;;10.90;;
46158;SDS011;31888;44.512;26.104;2022-09-01T02:53:55;13.98;;;10.57;;
46158;SDS011;31888;44.512;26.104;2022-09-01T02:56:00;15.85;;;9.40;;
46158;SDS011;31888;44.512;26.104;2022-09-01T02:58:05;21.50;;;10.15;;
46158;SDS011;31888;44.512;26.104;2022-09-01T03:00:17;12.82;;;9.82;;
46158;SDS011;31888;44.512;26.104;2022-09-01T03:02:30;14.95;;;10.75;;
46158;SDS011;31888;44.512;26.104;2022-09-01T03:04:35;15.90;;;9.43;;
46158;SDS011;31888;44.512;26.104;2022-09-01T03:06:42;14.65;;;10.55;;
46158;SDS011;31888;44.512;26.104;2022-09-01T03:08:48;18.10;;;10.55;;
46158;SDS011;31888;44.512;26.104;2022-09-01T03:10:54;17.52;;;10.45;;
46158;SDS011;31888;44.512;26.104;2022-09-01T03:13:05;21.05;;;11.43;;
46158;SDS011;31888;44.512;26.104;2022-09-01T03:15:12;17.10;;;10.65;;
46158;SDS011;31888;44.512;26.104;2022-09-01T03:17:17;17.52;;;10.95;;
46158;SDS011;31888;44.512;26.104;2022-09-01T03:19:22;20.83;;;10.27;;
46158;SDS011;31888;44.512;26.104;2022-09-01T03:21:28;15.15;;;10.77;;
46158;SDS011;31888;44.512;26.104;2022-09-01T03:23:35;15.20;;;11.10;;
46158;SDS011;31888;44.512;26.104;2022-09-01T03:25:40;18.05;;;10.85;;
46158;SDS011;31888;44.512;26.104;2022-09-01T03:27:46;17.63;;;11.43;;
46158;SDS011;31888;44.512;26.104;2022-09-01T03:29:50;17.02;;;11.35;;
46158;SDS011;31888;44.512;26.104;2022-09-01T03:31:55;19.77;;;12.57;;
46158;SDS011;31888;44.512;26.104;2022-09-01T03:33:59;18.15;;;12.38;;
46158;SDS011;31888;44.512;26.104;2022-09-01T03:36:08;20.63;;;12.77;;
46158;SDS011;31888;44.512;26.104;2022-09-01T03:38:21;19.80;;;11.23;;
46158;SDS011;31888;44.512;26.104;2022-09-01T03:40:30;19.02;;;12.18;;
46158;SDS011;31888;44.512;26.104;2022-09-01T03:42:38;19.60;;;12.05;;
46158;SDS011;31888;44.512;26.104;2022-09-01T03:44:43;17.83;;;11.90;;
46158;SDS011;31888;44.512;26.104;2022-09-01T03:46:52;18.77;;;12.27;;
46158;SDS011;31888;44.512;26.104;2022-09-01T03:48:57;20.20;;;11.57;;
46158;SDS011;31888;44.512;26.104;2022-09-01T03:51:04;19.13;;;11.25;;
46158;SDS011;31888;44.512;26.104;2022-09-01T03:53:09;17.73;;;11.38;;
46158;SDS011;31888;44.512;26.104;2022-09-01T03:55:14;15.45;;;10.80;;
46158;SDS011;31888;44.512;26.104;2022-09-01T03:57:26;16.20;;;11.10;;
46158;SDS011;31888;44.512;26.104;2022-09-01T03:59:34;21.75;;;12.05;;
46158;SDS011;31888;44.512;26.104;2022-09-01T04:01:39;17.10;;;11.35;;
46158;SDS011;31888;44.512;26.104;2022-09-01T04:03:46;16.45;;;10.63;;
46158;SDS011;31888;44.512;26.104;2022-09-01T04:05:55;21.08;;;12.25;;
46158;SDS011;31888;44.512;26.104;2022-09-01T04:08:02;20.15;;;12.73;;
46158;SDS011;31888;44.512;26.104;2022-09-01T04:10:08;14.57;;;10.57;;
46158;SDS011;31888;44.512;26.104;2022-09-01T04:12:12;19.05;;;11.07;;
46158;SDS011;31888;44.512;26.104;2022-09-01T04:14:22;17.30;;;11.13;;
46158;SDS011;31888;44.512;26.104;2022-09-01T04:16:32;14.88;;;11.52;;
46158;SDS011;31888;44.512;26.104;2022-09-01T04:18:55;15.20;;;10.70;;
46158;SDS011;31888;44.512;26.104;2022-09-01T04:21:02;19.60;;;11.30;;
46158;SDS011;31888;44.512;26.104;2022-09-01T04:23:08;16.80;;;11.73;;
46158;SDS011;31888;44.512;26.104;2022-09-01T04:25:13;17.83;;;11.60;;
46158;SDS011;31888;44.512;26.104;2022-09-01T04:27:18;21.42;;;11.02;;
46158;SDS011;31888;44.512;26.104;2022-09-01T04:29:27;20.58;;;11.40;;
46158;SDS011;31888;44.512;26.104;2022-09-01T04:31:36;16.90;;;11.18;;
46158;SDS011;31888;44.512;26.104;2022-09-01T04:33:42;16.15;;;11.15;;
46158;SDS011;31888;44.512;26.104;2022-09-01T04:35:50;27.25;;;12.18;;
46158;SDS011;31888;44.512;26.104;2022-09-01T04:37:57;17.50;;;10.73;;
46158;SDS011;31888;44.512;26.104;2022-09-01T04:40:03;16.08;;;10.45;;
46158;SDS011;31888;44.512;26.104;2022-09-01T04:42:08;18.40;;;11.15;;
46158;SDS011;31888;44.512;26.104;2022-09-01T04:44:13;17.98;;;10.68;;
46158;SDS011;31888;44.512;26.104;2022-09-01T04:46:19;20.00;;;11.20;;
46158;SDS011;31888;44.512;26.104;2022-09-01T04:48:24;19.63;;;11.98;;
46158;SDS011;31888;44.512;26.104;2022-09-01T04:50:31;17.20;;;10.98;;
46158;SDS011;31888;44.512;26.104;2022-09-01T04:53:00;12.95;;;10.07;;
46158;SDS011;31888;44.512;26.104;2022-09-01T04:55:13;16.90;;;10.95;;
46158;SDS011;31888;44.512;26.104;2022-09-01T04:57:19;20.38;;;10.95;;
46158;SDS011;31888;44.512;26.104;2022-09-01T04:59:24;16.15;;;10.10;;
46158;SDS011;31888;44.512;26.104;2022-09-01T05:01:35;16.15;;;10.43;;
46158;SDS011;31888;44.512;26.104;2022-09-01T05:03:50;23.85;;;10.02;;
46158;SDS011;31888;44.512;26.104;2022-09-01T05:06:13;17.67;;;9.93;;
46158;SDS011;31888;44.512;26.104;2022-09-01T05:08:26;16.17;;;10.32;;
46158;SDS011;31888;44.512;26.104;2022-09-01T05:10:37;18.52;;;10.13;;
46158;SDS011;31888;44.512;26.104;2022-09-01T05:12:52;19.15;;;10.55;;
46158;SDS011;31888;44.512;26.104;2022-09-01T05:14:59;17.95;;;9.80;;
46158;SDS011;31888;44.512;26.104;2022-09-01T05:17:09;18.67;;;10.68;;
46158;SDS011;31888;44.512;26.104;2022-09-01T05:19:15;12.32;;;8.98;;
46158;SDS011;31888;44.512;26.104;2022-09-01T05:21:23;18.42;;;9.25;;
46158;SDS011;31888;44.512;26.104;2022-09-01T05:23:29;16.77;;;10.65;;
46158;SDS011;31888;44.512;26.104;2022-09-01T05:25:36;17.27;;;9.80;;
46158;SDS011;31888;44.512;26.104;2022-09-01T05:27:43;14.68;;;9.52;;
46158;SDS011;31888;44.512;26.104;2022-09-01T05:29:53;14.48;;;9.50;;
46158;SDS011;31888;44.512;26.104;2022-09-01T05:32:00;17.05;;;9.60;;
46158;SDS011;31888;44.512;26.104;2022-09-01T05:34:15;20.00;;;9.75;;
46158;SDS011;31888;44.512;26.104;2022-09-01T05:36:24;18.58;;;9.82;;
46158;SDS011;31888;44.512;26.104;2022-09-01T05:38:30;23.33;;;8.80;;
46158;SDS011;31888;44.512;26.104;2022-09-01T05:40:35;29.95;;;9.30;;
46158;SDS011;31888;44.512;26.104;2022-09-01T05:42:43;16.35;;;9.55;;
46158;SDS011;31888;44.512;26.104;2022-09-01T05:44:47;23.33;;;8.80;;
46158;SDS011;31888;44.512;26.104;2022-09-01T05:46:54;20.10;;;8.45;;
46158;SDS011;31888;44.512;26.104;2022-09-01T05:51:19;21.58;;;10.05;;
46158;SDS011;31888;44.512;26.104;2022-09-01T05:53:46;18.45;;;9.57;;
46158;SDS011;31888;44.512;26.104;2022-09-01T05:55:53;20.88;;;8.75;;
46158;SDS011;31888;44.512;26.104;2022-09-01T05:57:58;16.65;;;8.75;;
46158;SDS011;31888;44.512;26.104;2022-09-01T06:00:04;15.45;;;8.55;;
46158;SDS011;31888;44.512;26.104;2022-09-01T06:02:20;22.20;;;8.75;;
46158;SDS011;31888;44.512;26.104;2022-09-01T06:04:30;14.07;;;8.43;;
46158;SDS011;31888;44.512;26.104;2022-09-01T06:06:39;14.32;;;8.85;;
46158;SDS011;31888;44.512;26.104;2022-09-01T06:09:07;14.48;;;8.85;;
46158;SDS011;31888;44.512;26.104;2022-09-01T06:11:13;16.08;;;9.55;;
46158;SDS011;31888;44.512;26.104;2022-09-01T06:13:19;13.55;;;8.13;;
46158;SDS011;31888;44.512;26.104;2022-09-01T06:15:28;21.63;;;8.82;;
46158;SDS011;31888;44.512;26.104;2022-09-01T06:17:34;18.02;;;8.88;;
46158;SDS011;31888;44.512;26.104;2022-09-01T06:19:39;12.98;;;8.68;;
46158;SDS011;31888;44.512;26.104;2022-09-01T06:21:45;12.73;;;8.98;;
46158;SDS011;31888;44.512;26.104;2022-09-01T06:23:50;14.73;;;8.35;;
46158;SDS011;31888;44.512;26.104;2022-09-01T06:25:56;18.48;;;9.07;;
46158;SDS011;31888;44.512;26.104;2022-09-01T06:28:04;13.05;;;8.00;;
46158;SDS011;31888;44.512;26.104;2022-09-01T06:30:10;13.30;;;8.93;;
46158;SDS011;31888;44.512;26.104;2022-09-01T06:32:34;13.18;;;8.20;;
46158;SDS011;31888;44.512;26.104;2022-09-01T06:34:40;14.63;;;8.77;;
46158;SDS011;31888;44.512;26.104;2022-09-01T06:36:54;15.63;;;8.00;;
46158;SDS011;31888;44.512;26.104;2022-09-01T06:38:58;16.02;;;8.75;;
46158;SDS011;31888;44.512;26.104;2022-09-01T06:41:05;14.50;;;8.55;;
46158;SDS011;31888;44.512;26.104;2022-09-01T06:43:12;17.23;;;9.23;;
46158;SDS011;31888;44.512;26.104;2022-09-01T06:45:25;13.77;;;8.85;;
46158;SDS011;31888;44.512;26.104;2022-09-01T06:47:29;15.93;;;8.43;;
46158;SDS011;31888;44.512;26.104;2022-09-01T06:49:34;18.17;;;8.43;;
46158;SDS011;31888;44.512;26.104;2022-09-01T06:51:47;13.73;;;8.20;;
46158;SDS011;31888;44.512;26.104;2022-09-01T06:53:59;12.65;;;7.47;;
46158;SDS011;31888;44.512;26.104;2022-09-01T06:56:06;13.43;;;8.30;;
46158;SDS011;31888;44.512;26.104;2022-09-01T06:58:15;14.90;;;9.05;;
46158;SDS011;31888;44.512;26.104;2022-09-01T07:00:49;12.68;;;7.72;;
46158;SDS011;31888;44.512;26.104;2022-09-01T07:02:55;12.77;;;8.15;;
46158;SDS011;31888;44.512;26.104;2022-09-01T07:05:16;13.20;;;8.02;;
46158;SDS011;31888;44.512;26.104;2022-09-01T07:07:45;11.77;;;7.82;;
46158;SDS011;31888;44.512;26.104;2022-09-01T07:10:27;17.33;;;8.13;;
46158;SDS011;31888;44.512;26.104;2022-09-01T07:12:40;19.25;;;8.55;;
46158;SDS011;31888;44.512;26.104;2022-09-01T07:15:09;11.95;;;7.53;;
46158;SDS011;31888;44.512;26.104;2022-09-01T07:17:39;14.38;;;8.55;;
46158;SDS011;31888;44.512;26.104;2022-09-01T07:19:44;14.20;;;8.05;;
46158;SDS011;31888;44.512;26.104;2022-09-01T07:21:50;13.05;;;7.72;;
46158;SDS011;31888;44.512;26.104;2022-09-01T07:24:18;12.13;;;7.32;;
46158;SDS011;31888;44.512;26.104;2022-09-01T07:26:50;17.15;;;7.63;;
46158;SDS011;31888;44.512;26.104;2022-09-01T07:28:57;14.18;;;6.85;;
46158;SDS011;31888;44.512;26.104;2022-09-01T07:31:06;11.25;;;7.28;;
46158;SDS011;31888;44.512;26.104;2022-09-01T07:33:33;12.02;;;7.57;;
46158;SDS011;31888;44.512;26.104;2022-09-01T07:35:46;14.75;;;8.23;;
46158;SDS011;31888;44.512;26.104;2022-09-01T07:38:11;10.38;;;7.43;;
46158;SDS011;31888;44.512;26.104;2022-09-01T07:40:36;10.00;;;7.30;;
46158;SDS011;31888;44.512;26.104;2022-09-01T07:43:22;12.45;;;7.10;;
46158;SDS011;31888;44.512;26.104;2022-09-01T07:45:52;9.90;;;7.00;;
46158;SDS011;31888;44.512;26.104;2022-09-01T07:48:02;11.18;;;7.18;;
46158;SDS011;31888;44.512;26.104;2022-09-01T07:50:18;10.98;;;6.80;;
46158;SDS011;31888;44.512;26.104;2022-09-01T07:52:42;13.27;;;7.03;;
46158;SDS011;31888;44.512;26.104;2022-09-01T07:54:51;10.18;;;6.80;;
46158;SDS011;31888;44.512;26.104;2022-09-01T07:56:56;9.18;;;6.75;;
46158;SDS011;31888;44.512;26.104;2022-09-01T07:59:03;13.30;;;6.90;;
46158;SDS011;31888;44.512;26.104;2022-09-01T08:01:15;12.63;;;6.65;;
46158;SDS011;31888;44.512;26.104;2022-09-01T08:03:23;9.65;;;5.70;;
46158;SDS011;31888;44.512;26.104;2022-09-01T08:05:29;9.30;;;6.55;;
46158;SDS011;31888;44.512;26.104;2022-09-01T08:07:35;12.07;;;6.32;;
46158;SDS011;31888;44.512;26.104;2022-09-01T08:09:53;9.07;;;5.88;;
46158;SDS011;31888;44.512;26.104;2022-09-01T08:12:05;11.30;;;6.32;;
46158;SDS011;31888;44.512;26.104;2022-09-01T08:14:21;15.82;;;7.00;;
46158;SDS011;31888;44.512;26.104;2022-09-01T08:16:26;7.97;;;6.40;;
46158;SDS011;31888;44.512;26.104;2022-09-01T08:18:43;10.50;;;7.05;;
46158;SDS011;31888;44.512;26.104;2022-09-01T08:21:17;12.07;;;7.50;;
46158;SDS011;31888;44.512;26.104;2022-09-01T08:23:37;21.95;;;6.80;;
46158;SDS011;31888;44.512;26.104;2022-09-01T08:25:45;13.95;;;7.30;;
46158;SDS011;31888;44.512;26.104;2022-09-01T08:27:50;15.10;;;7.45;;
46158;SDS011;31888;44.512;26.104;2022-09-01T08:30:03;10.50;;;6.50;;
46158;SDS011;31888;44.512;26.104;2022-09-01T08:32:08;12.02;;;6.90;;
46158;SDS011;31888;44.512;26.104;2022-09-01T08:34:13;13.73;;;7.38;;
46158;SDS011;31888;44.512;26.104;2022-09-01T08:36:18;12.25;;;6.82;;
46158;SDS011;31888;44.512;26.104;2022-09-01T08:38:27;9.15;;;6.40;;
46158;SDS011;31888;44.512;26.104;2022-09-01T08:40:31;15.23;;;6.70;;
46158;SDS011;31888;44.512;26.104;2022-09-01T08:42:41;11.02;;;5.95;;
46158;SDS011;31888;44.512;26.104;2022-09-01T08:44:54;10.05;;;6.60;;
46158;SDS011;31888;44.512;26.104;2022-09-01T08:47:09;11.63;;;6.90;;
46158;SDS011;31888;44.512;26.104;2022-09-01T08:49:17;11.20;;;6.35;;
46158;SDS011;31888;44.512;26.104;2022-09-01T08:51:49;10.07;;;6.60;;
46158;SDS011;31888;44.512;26.104;2022-09-01T08:53:58;10.18;;;6.22;;
46158;SDS011;31888;44.512;26.104;2022-09-01T08:56:08;9.30;;;6.50;;
46158;SDS011;31888;44.512;26.104;2022-09-01T08:58:14;14.82;;;6.95;;
46158;SDS011;31888;44.512;26.104;2022-09-01T09:00:44;11.57;;;6.50;;
46158;SDS011;31888;44.512;26.104;2022-09-01T09:03:01;10.40;;;5.85;;
46158;SDS011;31888;44.512;26.104;2022-09-01T09:05:21;10.02;;;5.63;;
46158;SDS011;31888;44.512;26.104;2022-09-01T09:07:40;10.45;;;5.85;;
46158;SDS011;31888;44.512;26.104;2022-09-01T09:10:09;11.70;;;5.25;;
46158;SDS011;31888;44.512;26.104;2022-09-01T09:12:25;9.48;;;6.20;;
46158;SDS011;31888;44.512;26.104;2022-09-01T09:17:21;9.50;;;5.55;;
46158;SDS011;31888;44.512;26.104;2022-09-01T09:19:32;10.63;;;5.97;;
46158;SDS011;31888;44.512;26.104;2022-09-01T09:21:39;9.30;;;6.50;;
46158;SDS011;31888;44.512;26.104;2022-09-01T09:23:45;12.00;;;5.90;;
46158;SDS011;31888;44.512;26.104;2022-09-01T09:25:53;11.93;;;6.50;;
46158;SDS011;31888;44.512;26.104;2022-09-01T09:27:58;8.90;;;6.18;;
46158;SDS011;31888;44.512;26.104;2022-09-01T09:30:04;12.95;;;6.25;;
46158;SDS011;31888;44.512;26.104;2022-09-01T09:32:15;11.05;;;6.30;;
46158;SDS011;31888;44.512;26.104;2022-09-01T09:34:41;10.90;;;6.75;;
46158;SDS011;31888;44.512;26.104;2022-09-01T09:36:46;7.68;;;5.68;;
46158;SDS011;31888;44.512;26.104;2022-09-01T09:41:14;10.07;;;5.85;;
46158;SDS011;31888;44.512;26.104;2022-09-01T09:43:29;15.68;;;6.53;;
46158;SDS011;31888;44.512;26.104;2022-09-01T09:45:38;13.77;;;5.93;;
46158;SDS011;31888;44.512;26.104;2022-09-01T09:47:44;10.57;;;6.60;;
46158;SDS011;31888;44.512;26.104;2022-09-01T09:49:53;10.38;;;6.60;;
46158;SDS011;31888;44.512;26.104;2022-09-01T09:52:16;9.05;;;6.20;;
46158;SDS011;31888;44.512;26.104;2022-09-01T09:54:22;13.07;;;6.20;;
46158;SDS011;31888;44.512;26.104;2022-09-01T09:56:28;9.93;;;6.78;;
46158;SDS011;31888;44.512;26.104;2022-09-01T09:58:35;13.75;;;6.78;;
46158;SDS011;31888;44.512;26.104;2022-09-01T10:00:41;10.02;;;6.38;;
46158;SDS011;31888;44.512;26.104;2022-09-01T10:03:06;14.43;;;6.40;;
46158;SDS011;31888;44.512;26.104;2022-09-01T10:05:25;10.93;;;6.63;;
46158;SDS011;31888;44.512;26.104;2022-09-01T10:07:46;11.73;;;6.85;;
46158;SDS011;31888;44.512;26.104;2022-09-01T10:09:52;10.10;;;6.28;;
46158;SDS011;31888;44.512;26.104;2022-09-01T10:11:58;10.40;;;7.13;;
46158;SDS011;31888;44.512;26.104;2022-09-01T10:14:05;10.73;;;6.90;;
46158;SDS011;31888;44.512;26.104;2022-09-01T10:16:26;10.55;;;6.43;;
46158;SDS011;31888;44.512;26.104;2022-09-01T10:18:34;10.07;;;6.72;;
46158;SDS011;31888;44.512;26.104;2022-09-01T10:28:07;13.68;;;6.30;;
46158;SDS011;31888;44.512;26.104;2022-09-01T10:33:46;11.02;;;6.07;;
46158;SDS011;31888;44.512;26.104;2022-09-01T10:56:26;9.85;;;6.25;;
46158;SDS011;31888;44.512;26.104;2022-09-01T11:09:45;20.40;;;7.18;;
46158;SDS011;31888;44.512;26.104;2022-09-01T11:13:52;7.95;;;6.07;;
46158;SDS011;31888;44.512;26.104;2022-09-01T11:18:50;11.00;;;6.82;;
46158;SDS011;31888;44.512;26.104;2022-09-01T11:21:04;8.07;;;5.72;;
46158;SDS011;31888;44.512;26.104;2022-09-01T11:23:22;11.25;;;6.13;;
46158;SDS011;31888;44.512;26.104;2022-09-01T11:25:34;11.13;;;6.45;;
46158;SDS011;31888;44.512;26.104;2022-09-01T11:27:55;9.43;;;6.00;;
46158;SDS011;31888;44.512;26.104;2022-09-01T11:30:07;18.35;;;6.15;;
46158;SDS011;31888;44.512;26.104;2022-09-01T11:32:13;21.50;;;5.95;;
46158;SDS011;31888;44.512;26.104;2022-09-01T11:34:20;10.73;;;5.40;;
46158;SDS011;31888;44.512;26.104;2022-09-01T11:36:27;10.32;;;5.90;;
46158;SDS011;31888;44.512;26.104;2022-09-01T11:38:37;10.27;;;5.57;;
46158;SDS011;31888;44.512;26.104;2022-09-01T11:40:53;11.18;;;5.43;;
46158;SDS011;31888;44.512;26.104;2022-09-01T11:42:59;9.98;;;5.15;;
46158;SDS011;31888;44.512;26.104;2022-09-01T11:45:16;10.23;;;5.55;;
46158;SDS011;31888;44.512;26.104;2022-09-01T11:47:24;7.03;;;5.28;;
46158;SDS011;31888;44.512;26.104;2022-09-01T11:49:31;7.53;;;5.32;;
46158;SDS011;31888;44.512;26.104;2022-09-01T11:51:38;9.88;;;5.30;;
46158;SDS011;31888;44.512;26.104;2022-09-01T11:53:46;8.27;;;5.20;;
46158;SDS011;31888;44.512;26.104;2022-09-01T12:05:27;5.65;;;4.72;;
46158;SDS011;31888;44.512;26.104;2022-09-01T12:23:14;11.35;;;5.45;;
46158;SDS011;31888;44.512;26.104;2022-09-01T12:25:24;12.57;;;5.38;;
46158;SDS011;31888;44.512;26.104;2022-09-01T12:27:29;10.43;;;5.55;;
46158;SDS011;31888;44.512;26.104;2022-09-01T12:29:34;10.65;;;6.13;;
46158;SDS011;31888;44.512;26.104;2022-09-01T12:31:41;9.30;;;5.75;;
46158;SDS011;31888;44.512;26.104;2022-09-01T12:33:47;15.85;;;6.57;;
46158;SDS011;31888;44.512;26.104;2022-09-01T12:35:58;8.00;;;6.07;;
46158;SDS011;31888;44.512;26.104;2022-09-01T12:38:23;10.65;;;6.07;;
46158;SDS011;31888;44.512;26.104;2022-09-01T12:40:30;10.02;;;5.93;;
46158;SDS011;31888;44.512;26.104;2022-09-01T12:42:35;16.58;;;6.05;;
46158;SDS011;31888;44.512;26.104;2022-09-01T12:44:46;8.25;;;5.90;;
46158;SDS011;31888;44.512;26.104;2022-09-01T12:46:52;10.60;;;6.28;;
46158;SDS011;31888;44.512;26.104;2022-09-01T12:51:21;15.02;;;6.95;;
46158;SDS011;31888;44.512;26.104;2022-09-01T12:53:34;9.02;;;6.03;;
46158;SDS011;31888;44.512;26.104;2022-09-01T12:55:38;13.50;;;6.40;;
46158;SDS011;31888;44.512;26.104;2022-09-01T12:57:51;15.23;;;6.63;;
46158;SDS011;31888;44.512;26.104;2022-09-01T13:00:05;8.30;;;6.22;;
46158;SDS011;31888;44.512;26.104;2022-09-01T13:02:27;13.80;;;6.57;;
46158;SDS011;31888;44.512;26.104;2022-09-01T13:04:38;16.60;;;6.47;;
46158;SDS011;31888;44.512;26.104;2022-09-01T13:06:43;11.75;;;6.35;;
46158;SDS011;31888;44.512;26.104;2022-09-01T13:08:49;11.32;;;6.00;;
46158;SDS011;31888;44.512;26.104;2022-09-01T13:10:54;17.15;;;6.80;;
46158;SDS011;31888;44.512;26.104;2022-09-01T13:13:00;14.10;;;6.68;;
46158;SDS011;31888;44.512;26.104;2022-09-01T13:15:05;11.25;;;5.85;;
46158;SDS011;31888;44.512;26.104;2022-09-01T13:17:10;11.05;;;6.13;;
46158;SDS011;31888;44.512;26.104;2022-09-01T13:19:16;10.27;;;5.65;;
46158;SDS011;31888;44.512;26.104;2022-09-01T13:21:30;8.15;;;5.70;;
46158;SDS011;31888;44.512;26.104;2022-09-01T13:23:36;8.48;;;6.38;;
46158;SDS011;31888;44.512;26.104;2022-09-01T13:25:43;8.70;;;6.18;;
46158;SDS011;31888;44.512;26.104;2022-09-01T13:27:47;12.65;;;5.93;;
46158;SDS011;31888;44.512;26.104;2022-09-01T13:29:54;10.27;;;6.20;;
46158;SDS011;31888;44.512;26.104;2022-09-01T13:31:59;12.80;;;6.45;;
46158;SDS011;31888;44.512;26.104;2022-09-01T13:34:22;11.63;;;6.85;;
46158;SDS011;31888;44.512;26.104;2022-09-01T13:36:27;10.10;;;6.35;;
46158;SDS011;31888;44.512;26.104;2022-09-01T13:38:52;9.60;;;5.90;;
46158;SDS011;31888;44.512;26.104;2022-09-01T13:41:00;7.05;;;5.47;;
46158;SDS011;31888;44.512;26.104;2022-09-01T13:43:04;12.85;;;5.78;;
46158;SDS011;31888;44.512;26.104;2022-09-01T13:45:10;10.73;;;5.82;;
46158;SDS011;31888;44.512;26.104;2022-09-01T13:47:17;13.02;;;5.95;;
46158;SDS011;31888;44.512;26.104;2022-09-01T13:49:31;11.75;;;6.05;;
46158;SDS011;31888;44.512;26.104;2022-09-01T13:51:49;13.80;;;5.95;;
46158;SDS011;31888;44.512;26.104;2022-09-01T13:53:55;11.80;;;5.47;;
46158;SDS011;31888;44.512;26.104;2022-09-01T13:56:00;10.02;;;5.65;;
46158;SDS011;31888;44.512;26.104;2022-09-01T13:58:06;11.90;;;6.35;;